Pagina principală
METAR-TAF:

METAR-TAF

Aeroporturi :

Bază aeriană militară

Santos, São Paulo, Brazilia

Latitudine: 23-56S, longitudine: 046-18W, elevație: 3 m

Observații meteo curente

Raportul a fost făcut în urmă cu 25 de minute, la 17:00 UTC
Vânt 5 kt de la Nord-vest
Temperatură 19°C
Umiditate 83%
Presiune 1023 hPa
Vizibilitate: 8000 m
Total acoperit la o înălțime de 1800 picior

METAR: SBST 211700Z 31005KT 8000 OVC018 19/16 Q1023

Ora: 14:25 (17:25 UTC)


TAF: lipsă

Observații și prognoze meteo pentru peste 4.000 de aeroporturi (rapoarte METAR și TAF).

Stațiile disponibile sunt reprezentate pe hartă prin puncte galbene și roșii.

Țineți indicatorul mouse-ului pe punctul dorit pentru a vedea denumirea stației.

Apoi, faceți clic pentru a vedea observațiile și prognozele meteorologice.

Pentru a schimba harta: Pentru mărire, faceți clic pe butoanele verzi cu cruce neagră; pentru micșorare, pe butonul verde cu o liniuță; pentru hărți învecinate, pe săgețile verzi.


METAR-TAF: